F/V Oceanie — FVBW — position and weather

sailwx.info

Track history (hours):
 
Tides and Currents Weather Stations Pressure Air Temp Water Temp Dewpoint Dewpoint Depression Visibility Wind Speed Wind Dir Waves Ship Positions

F/V Oceanie

Last reported at 2017-Mar-23 10:30 UTC. Time now 2017-Mar-24 21:54 UTC.
Position N 47°44' W 003°22'.

Length 16 m.

Type: Fishing. MMSI: 228370000.

Date/timePositionNaut miles runAvg speedWind from/ knotsBaromVisibWave heightAir tempDewpointWater temp
2017-Mar-23 10:30N 47°44' W 003°22'0 0.0
2017-Mar-23 09:34N 47°44' W 003°22'0 0.0
2017-Mar-23 08:33N 47°44' W 003°22'0 0.0
2017-Mar-22 08:19N 47°44' W 003°22'  
2017-Mar-18 02:33N 47°44' W 003°22'0 0.0
2017-Mar-18 01:34N 47°44' W 003°22'2 2.2
2017-Mar-18 00:34N 47°42' W 003°22'8 8.3
2017-Mar-17 23:33N 47°33' W 003°24'8 8.5
2017-Mar-17 22:33N 47°25' W 003°27'8 8.2
2017-Mar-17 21:34N 47°17' W 003°31'5 4.4
2017-Mar-17 20:29N 47°13' W 003°32'7 3.2
2017-Mar-17 18:08N 47°06' W 003°26'8 3.7
2017-Mar-17 16:04N 46°59' W 003°26'3 3.5
2017-Mar-17 15:14N 47°01' W 003°28'4 3.4
2017-Mar-17 14:12N 46°59' W 003°24'2 3.5
2017-Mar-17 13:32N 46°58' W 003°26'1 0.6
2017-Mar-17 11:26N 46°58' W 003°24'3 3.5
2017-Mar-17 10:32N 47°01' W 003°25'3 2.4
2017-Mar-17 09:16N 46°58' W 003°27'2 1.2
2017-Mar-17 07:23N 46°59' W 003°24'5 3.7
2017-Mar-17 06:03N 46°54' W 003°25'0 0.7
2017-Mar-17 05:31N 46°53' W 003°25'3 2.4
2017-Mar-17 04:20N 46°52' W 003°22'2 3.1
2017-Mar-17 03:33N 46°53' W 003°25'2 2.3
2017-Mar-17 02:27N 46°53' W 003°22'2 2.0
2017-Mar-17 01:34N 46°51' W 003°24'2 2.3
2017-Mar-17 00:33N 46°54' W 003°23'3 2.6
2017-Mar-16 23:31N 46°51' W 003°25'8 3.8
2017-Mar-16 21:33N 46°44' W 003°23'3 3.0
2017-Mar-16 20:33N 46°47' W 003°22'4 4.4
2017-Mar-16 19:33N 46°51' W 003°23'5 4.0
2017-Mar-16 18:23N 46°56' W 003°23'3 3.9
2017-Mar-16 17:33N 46°58' W 003°26'3 3.2
2017-Mar-16 16:33N 47°02' W 003°25'3 2.0
2017-Mar-16 15:09N 46°59' W 003°24'3 4.0
2017-Mar-16 14:29N 47°01' W 003°26'2 1.3
2017-Mar-16 13:17N 46°60' W 003°25'2 2.0
2017-Mar-16 12:30N 46°59' W 003°27'2 2.6
2017-Mar-16 11:31N 47°01' W 003°25'1 1.1
2017-Mar-16 10:28N 47°01' W 003°24'2 1.7
2017-Mar-16 09:29N 47°00' W 003°26'0 0.1
2017-Mar-16 08:33N 47°00' W 003°26'2 2.4
2017-Mar-16 07:33N 47°01' W 003°23'4 4.0
2017-Mar-16 06:33N 47°05' W 003°24'4 4.1
2017-Mar-16 05:33N 47°09' W 003°24'7 6.6
2017-Mar-16 04:33N 47°16' W 003°24'9 8.7
2017-Mar-16 03:33N 47°24' W 003°24'8 8.4
2017-Mar-16 02:33N 47°33' W 003°23'9 8.7
2017-Mar-16 01:33N 47°41' W 003°22'2 2.4
2017-Mar-16 00:33N 47°44' W 003°22'4 3.8
2017-Mar-15 23:33N 47°40' W 003°22'9 9.0
2017-Mar-15 22:33N 47°31' W 003°23'9 8.7
2017-Mar-15 21:33N 47°22' W 003°24'9 8.6
2017-Mar-15 20:33N 47°14' W 003°25'5 5.1
2017-Mar-15 19:32N 47°09' W 003°25'4 3.9
2017-Mar-15 18:27N 47°04' W 003°25'2 2.5
2017-Mar-15 17:32N 47°02' W 003°27'4 4.1
2017-Mar-15 16:32N 47°06' W 003°27'3 2.8
2017-Mar-15 15:32N 47°09' W 003°25'3 2.8
2017-Mar-15 14:32N 47°06' W 003°27'2 1.6
2017-Mar-15 13:32N 47°08' W 003°26'3 2.5
2017-Mar-15 12:32N 47°06' W 003°28'3 2.6
2017-Mar-15 11:32N 47°08' W 003°26'2 2.2
2017-Mar-15 10:33N 47°06' W 003°28'2 1.9
2017-Mar-15 09:33N 47°08' W 003°26'1 1.5
2017-Mar-15 08:33N 47°06' W 003°27'2 1.6
2017-Mar-15 07:32N 47°08' W 003°28'3 3.0
2017-Mar-15 06:33N 47°06' W 003°24'4 3.4
2017-Mar-15 05:31N 47°03' W 003°22'5 3.8
2017-Mar-15 04:14N 46°58' W 003°21'4 1.5
2017-Mar-15 01:29N 46°55' W 003°25'1 1.4
2017-Mar-15 00:29N 46°56' W 003°25'4 1.2
2017-Mar-14 21:11N 46°60' W 003°24'4 4.2
2017-Mar-14 20:20N 47°03' W 003°25'3 3.5
2017-Mar-14 19:33N 47°06' W 003°26'3 3.1
2017-Mar-14 18:33N 47°09' W 003°25'2 2.4
2017-Mar-14 17:33N 47°07' W 003°26'1 1.3
2017-Mar-14 16:33N 47°08' W 003°26'2 1.6
2017-Mar-14 15:32N 47°06' W 003°27'1 1.2
2017-Mar-14 14:32N 47°07' W 003°27'1 1.2
2017-Mar-14 13:32N 47°07' W 003°26'1 0.9
2017-Mar-14 12:32N 47°07' W 003°27'2 1.7
2017-Mar-14 11:33N 47°07' W 003°29'3 3.5
2017-Mar-14 10:33N 47°07' W 003°24'3 2.9
2017-Mar-14 09:32N 47°06' W 003°28'1 0.8
2017-Mar-14 08:33N 47°06' W 003°27'3 2.6
2017-Mar-14 07:33N 47°09' W 003°28'5 4.8
2017-Mar-14 06:33N 47°14' W 003°28'9 9.0
2017-Mar-14 05:33N 47°23' W 003°26'9 8.8
2017-Mar-14 04:33N 47°31' W 003°24'9 8.9
2017-Mar-14 03:33N 47°40' W 003°22'4 3.6
2017-Mar-14 02:33N 47°44' W 003°22'2 1.6
2017-Mar-14 01:33N 47°42' W 003°22'9 9.1
2017-Mar-14 00:33N 47°33' W 003°23'8 7.7
2017-Mar-13 23:33N 47°25' W 003°23'3 2.6
2017-Mar-13 22:33N 47°24' W 003°19'2 1.8
2017-Mar-13 21:33N 47°25' W 003°16'3 2.9
2017-Mar-13 20:33N 47°25' W 003°21'5 4.9
2017-Mar-13 19:33N 47°21' W 003°24'2 2.1
2017-Mar-13 18:33N 47°20' W 003°27'4 4.0
2017-Mar-13 17:33N 47°23' W 003°32'4 3.7
2017-Mar-13 16:33N 47°26' W 003°34'3 3.3
2017-Mar-13 15:33N 47°26' W 003°39'2 2.1
2017-Mar-13 14:33N 47°28' W 003°42'2 2.3
2017-Mar-13 13:33N 47°26' W 003°40'2 2.3
2017-Mar-13 12:33N 47°28' W 003°39'3 2.6
2017-Mar-13 11:33N 47°25' W 003°38'3 3.3
2017-Mar-13 10:33N 47°25' W 003°42'  
Track history (hours):
 
Tides and Currents Weather Stations Pressure Air Temp Water Temp Dewpoint Dewpoint Depression Visibility Wind Speed Wind Dir Waves Ship Positions

F/V Oceanie

Last reported at 2017-Mar-23 10:30 UTC. Time now 2017-Mar-24 21:54 UTC.
Position N 47°44' W 003°22'.

Length 16 m.

Type: Fishing. MMSI: 228370000.

Date/timePositionNaut miles runAvg speedWind from/ knotsBaromVisibWave heightAir tempDewpointWater temp
2017-Mar-23 10:30N 47°44' W 003°22'0 0.0
2017-Mar-23 09:34N 47°44' W 003°22'0 0.0
2017-Mar-23 08:33N 47°44' W 003°22'0 0.0
2017-Mar-22 08:19N 47°44' W 003°22'  
2017-Mar-18 02:33N 47°44' W 003°22'0 0.0
2017-Mar-18 01:34N 47°44' W 003°22'2 2.2
2017-Mar-18 00:34N 47°42' W 003°22'8 8.3
2017-Mar-17 23:33N 47°33' W 003°24'8 8.5
2017-Mar-17 22:33N 47°25' W 003°27'8 8.2
2017-Mar-17 21:34N 47°17' W 003°31'5 4.4
2017-Mar-17 20:29N 47°13' W 003°32'7 3.2
2017-Mar-17 18:08N 47°06' W 003°26'8 3.7
2017-Mar-17 16:04N 46°59' W 003°26'3 3.5
2017-Mar-17 15:14N 47°01' W 003°28'4 3.4
2017-Mar-17 14:12N 46°59' W 003°24'2 3.5
2017-Mar-17 13:32N 46°58' W 003°26'1 0.6
2017-Mar-17 11:26N 46°58' W 003°24'3 3.5
2017-Mar-17 10:32N 47°01' W 003°25'3 2.4
2017-Mar-17 09:16N 46°58' W 003°27'2 1.2
2017-Mar-17 07:23N 46°59' W 003°24'5 3.7
2017-Mar-17 06:03N 46°54' W 003°25'0 0.7
2017-Mar-17 05:31N 46°53' W 003°25'3 2.4
2017-Mar-17 04:20N 46°52' W 003°22'2 3.1
2017-Mar-17 03:33N 46°53' W 003°25'2 2.3
2017-Mar-17 02:27N 46°53' W 003°22'2 2.0
2017-Mar-17 01:34N 46°51' W 003°24'2 2.3
2017-Mar-17 00:33N 46°54' W 003°23'3 2.6
2017-Mar-16 23:31N 46°51' W 003°25'8 3.8
2017-Mar-16 21:33N 46°44' W 003°23'3 3.0
2017-Mar-16 20:33N 46°47' W 003°22'4 4.4
2017-Mar-16 19:33N 46°51' W 003°23'5 4.0
2017-Mar-16 18:23N 46°56' W 003°23'3 3.9
2017-Mar-16 17:33N 46°58' W 003°26'3 3.2
2017-Mar-16 16:33N 47°02' W 003°25'3 2.0
2017-Mar-16 15:09N 46°59' W 003°24'3 4.0
2017-Mar-16 14:29N 47°01' W 003°26'2 1.3
2017-Mar-16 13:17N 46°60' W 003°25'2 2.0
2017-Mar-16 12:30N 46°59' W 003°27'2 2.6
2017-Mar-16 11:31N 47°01' W 003°25'1 1.1
2017-Mar-16 10:28N 47°01' W 003°24'2 1.7
2017-Mar-16 09:29N 47°00' W 003°26'0 0.1
2017-Mar-16 08:33N 47°00' W 003°26'2 2.4
2017-Mar-16 07:33N 47°01' W 003°23'4 4.0
2017-Mar-16 06:33N 47°05' W 003°24'4 4.1
2017-Mar-16 05:33N 47°09' W 003°24'7 6.6
2017-Mar-16 04:33N 47°16' W 003°24'9 8.7
2017-Mar-16 03:33N 47°24' W 003°24'8 8.4
2017-Mar-16 02:33N 47°33' W 003°23'9 8.7
2017-Mar-16 01:33N 47°41' W 003°22'2 2.4
2017-Mar-16 00:33N 47°44' W 003°22'4 3.8
2017-Mar-15 23:33N 47°40' W 003°22'9 9.0
2017-Mar-15 22:33N 47°31' W 003°23'9 8.7
2017-Mar-15 21:33N 47°22' W 003°24'9 8.6
2017-Mar-15 20:33N 47°14' W 003°25'5 5.1
2017-Mar-15 19:32N 47°09' W 003°25'4 3.9
2017-Mar-15 18:27N 47°04' W 003°25'2 2.5
2017-Mar-15 17:32N 47°02' W 003°27'4 4.1
2017-Mar-15 16:32N 47°06' W 003°27'3 2.8
2017-Mar-15 15:32N 47°09' W 003°25'3 2.8
2017-Mar-15 14:32N 47°06' W 003°27'2 1.6
2017-Mar-15 13:32N 47°08' W 003°26'3 2.5
2017-Mar-15 12:32N 47°06' W 003°28'3 2.6
2017-Mar-15 11:32N 47°08' W 003°26'2 2.2
2017-Mar-15 10:33N 47°06' W 003°28'2 1.9
2017-Mar-15 09:33N 47°08' W 003°26'1 1.5
2017-Mar-15 08:33N 47°06' W 003°27'2 1.6
2017-Mar-15 07:32N 47°08' W 003°28'3 3.0
2017-Mar-15 06:33N 47°06' W 003°24'4 3.4
2017-Mar-15 05:31N 47°03' W 003°22'5 3.8
2017-Mar-15 04:14N 46°58' W 003°21'4 1.5
2017-Mar-15 01:29N 46°55' W 003°25'1 1.4
2017-Mar-15 00:29N 46°56' W 003°25'4 1.2
2017-Mar-14 21:11N 46°60' W 003°24'4 4.2
2017-Mar-14 20:20N 47°03' W 003°25'3 3.5
2017-Mar-14 19:33N 47°06' W 003°26'3 3.1
2017-Mar-14 18:33N 47°09' W 003°25'2 2.4
2017-Mar-14 17:33N 47°07' W 003°26'1 1.3
2017-Mar-14 16:33N 47°08' W 003°26'2 1.6
2017-Mar-14 15:32N 47°06' W 003°27'1 1.2
2017-Mar-14 14:32N 47°07' W 003°27'1 1.2
2017-Mar-14 13:32N 47°07' W 003°26'1 0.9
2017-Mar-14 12:32N 47°07' W 003°27'2 1.7
2017-Mar-14 11:33N 47°07' W 003°29'3 3.5
2017-Mar-14 10:33N 47°07' W 003°24'3 2.9
2017-Mar-14 09:32N 47°06' W 003°28'1 0.8
2017-Mar-14 08:33N 47°06' W 003°27'3 2.6
2017-Mar-14 07:33N 47°09' W 003°28'5 4.8
2017-Mar-14 06:33N 47°14' W 003°28'9 9.0
2017-Mar-14 05:33N 47°23' W 003°26'9 8.8
2017-Mar-14 04:33N 47°31' W 003°24'9 8.9
2017-Mar-14 03:33N 47°40' W 003°22'4 3.6
2017-Mar-14 02:33N 47°44' W 003°22'2 1.6
2017-Mar-14 01:33N 47°42' W 003°22'9 9.1
2017-Mar-14 00:33N 47°33' W 003°23'8 7.7
2017-Mar-13 23:33N 47°25' W 003°23'3 2.6
2017-Mar-13 22:33N 47°24' W 003°19'2 1.8
2017-Mar-13 21:33N 47°25' W 003°16'3 2.9
2017-Mar-13 20:33N 47°25' W 003°21'5 4.9
2017-Mar-13 19:33N 47°21' W 003°24'2 2.1
2017-Mar-13 18:33N 47°20' W 003°27'4 4.0
2017-Mar-13 17:33N 47°23' W 003°32'4 3.7
2017-Mar-13 16:33N 47°26' W 003°34'3 3.3
2017-Mar-13 15:33N 47°26' W 003°39'2 2.1
2017-Mar-13 14:33N 47°28' W 003°42'2 2.3
2017-Mar-13 13:33N 47°26' W 003°40'2 2.3
2017-Mar-13 12:33N 47°28' W 003°39'3 2.6
2017-Mar-13 11:33N 47°25' W 003°38'3 3.3
2017-Mar-13 10:33N 47°25' W 003°42'  

Dump ship's entire track history